Time;durP1;ratioP1;P1;durP2;ratioP2;P2;SDS_P1;SDS_P2;PMS_P1;PMS_P2;Temp;Humidity;BMP_temperature;BMP_pressure;BME280_temperature;BME280_humidity;BME280_pressure;Samples;Min_cycle;Max_cycle;Signal;HPM_P1;HPM_P2
2022/01/23 00:01:11;;;;;;;;;;;;;;;23.30;50.25;100704.81;7317890;19;128930;-40
2022/01/23 00:03:42;;;;;;;27.85;3.42;;;;;;;23.42;49.46;100709.88;7317584;19;130107;-40
2022/01/23 00:06:07;;;;;;;38.30;4.32;;;;;;;23.54;49.38;100703.66;7314105;19;130424;-40
2022/01/23 00:08:33;;;;;;;19.17;2.88;;;;;;;23.33;50.13;100697.53;7316026;19;155553;-40
2022/01/23 00:10:58;;;;;;;12.35;2.25;;;;;;;23.45;49.63;100708.81;7316107;19;128975;-39
2022/01/23 00:13:33;;;;;;;33.25;4.13;;;;;;;23.24;50.58;100706.09;7317452;19;130198;-40
2022/01/23 00:18:42;;;;;;;28.60;3.47;;;;;;;23.04;50.97;100705.06;7316978;19;128807;-40
2022/01/23 00:21:08;;;;;;;35.00;4.15;;;;;;;22.98;51.39;100715.22;7314873;19;154881;-40
2022/01/23 00:30:19;;;;;;;28.35;3.22;;;;;;;22.89;51.64;100719.38;7317332;19;129562;-40
2022/01/23 00:31:47;;;;;;;37.63;4.13;;;;;;;22.60;52.37;100699.88;7316136;19;128975;-38
2022/01/23 00:34:13;;;;;;;28.25;3.65;;;;;;;22.55;52.21;100698.56;7315436;19;130744;-40
2022/01/23 00:36:38;;;;;;;27.27;3.63;;;;;;;22.48;52.42;100694.69;7311608;19;158495;-40
2022/01/23 00:39:04;;;;;;;30.13;3.67;;;;;;;22.41;52.45;100698.78;7315290;19;140362;-40
2022/01/23 00:41:29;;;;;;;32.22;3.58;;;;;;;22.41;52.91;100704.00;7315634;19;128816;-40
2022/01/23 00:43:55;;;;;;;25.63;3.00;;;;;;;22.33;53.51;100714.25;7315946;19;129925;-40
2022/01/23 00:46:32;;;;;;;26.13;3.58;;;;;;;22.35;53.08;100709.69;7310258;19;159063;-39
2022/01/23 00:51:26;;;;;;;26.08;3.08;;;;;;;22.29;53.23;100713.66;7316129;19;129511;-38
2022/01/23 00:53:52;;;;;;;24.50;3.05;;;;;;;22.23;53.65;100721.94;7315167;19;130681;-39
2022/01/23 00:56:17;;;;;;;30.70;3.53;;;;;;;22.19;53.39;100732.78;7311930;19;129792;-40
2022/01/23 00:58:42;;;;;;;41.67;4.63;;;;;;;22.04;53.43;100731.31;7314994;19;154557;-40
2022/01/23 01:01:07;;;;;;;27.75;3.40;;;;;;;22.06;53.55;100745.97;7315313;19;129136;-39
2022/01/23 01:03:33;;;;;;;27.42;2.97;;;;;;;22.11;54.21;100750.88;7313618;19;158978;-40
2022/01/23 01:05:59;;;;;;;23.02;2.72;;;;;;;22.11;54.23;100753.47;7312014;19;129500;-38
2022/01/23 01:08:25;;;;;;;27.08;3.13;;;;;;;22.09;54.27;100758.00;7316136;19;129690;-41
2022/01/23 01:11:06;;;;;;;36.78;4.15;;;;;;;22.08;54.29;100751.09;7315725;19;129795;-40
2022/01/23 01:13:53;;;;;;;25.77;3.03;;;;;;;22.06;53.90;100745.13;7315260;19;130216;-39
2022/01/23 01:32:51;;;;;;;31.17;3.25;;;;;;;22.91;51.08;100755.97;7314120;19;129137;-40
2022/01/23 01:35:22;;;;;;;52.90;5.13;;;;;;;23.23;50.46;100756.91;7312227;19;130097;-40
2022/01/23 01:37:48;;;;;;;33.28;3.78;;;;;;;23.44;49.70;100757.84;7314607;19;130459;-40
2022/01/23 01:40:13;;;;;;;33.25;3.42;;;;;;;23.39;49.59;100736.38;7315382;19;129075;-40
2022/01/23 01:42:39;;;;;;;30.58;3.20;;;;;;;23.46;50.10;100748.06;7313720;19;153961;-39
2022/01/23 01:45:05;;;;;;;33.00;3.40;;;;;;;23.43;49.90;100760.59;7313046;19;131798;-40
2022/01/23 01:47:30;;;;;;;28.40;3.20;;;;;;;23.26;50.56;100743.53;7313303;19;130728;-40
2022/01/23 01:49:55;;;;;;;26.58;2.83;;;;;;;23.28;49.90;100735.59;7313456;19;132566;-39
2022/01/23 01:52:21;;;;;;;30.13;3.22;;;;;;;23.16;50.38;100739.97;7313990;19;129597;-40
2022/01/23 01:54:48;;;;;;;30.38;3.35;;;;;;;23.03;51.34;100737.50;7312121;19;158734;-40
2022/01/23 01:57:14;;;;;;;52.42;4.82;;;;;;;22.92;51.19;100736.69;7310624;19;131301;-39
2022/01/23 02:10:05;;;;;;;32.45;3.28;;;;;;;22.51;52.46;100725.94;7314246;19;129047;-40
2022/01/23 02:18:14;;;;;;;31.80;3.25;;;;;;;22.39;53.37;100737.34;7310621;19;129648;-39
2022/01/23 02:23:53;;;;;;;28.35;2.78;;;;;;;22.31;53.09;100730.09;7313538;19;129600;-40
2022/01/23 02:50:55;;;;;;;;;;;;;;;22.06;53.35;100753.00;7314454;19;129510;-40
2022/01/23 02:56:00;;;;;;;22.73;2.60;;;;;;;22.75;51.83;100760.75;7311169;19;129194;-41
2022/01/23 02:58:33;;;;;;;33.83;3.08;;;;;;;23.00;51.34;100760.53;7311443;19;130832;-39
2022/01/23 03:01:09;;;;;;;25.10;2.55;;;;;;;23.21;50.66;100759.66;7311419;19;130755;-39
2022/01/23 03:03:38;;;;;;;22.35;2.33;;;;;;;23.50;49.46;100757.38;7310805;19;129057;-40
2022/01/23 03:14:22;;;;;;;29.27;2.80;;;;;;;23.32;49.72;100755.38;7310345;19;129605;-40
2022/01/23 03:28:19;;;;;;;30.98;2.92;;;;;;;22.78;51.69;100757.91;7313477;19;129790;-40
2022/01/23 03:31:59;;;;;;;30.85;2.85;;;;;;;22.68;51.61;100767.41;7311708;19;130253;-40
2022/01/23 03:33:41;;;;;;;22.92;2.22;;;;;;;22.55;52.28;100766.69;7308927;19;129496;-41
2022/01/23 03:36:07;;;;;;;21.20;2.25;;;;;;;22.54;52.80;100775.53;7308311;19;128845;-41
2022/01/23 03:38:32;;;;;;;20.95;1.98;;;;;;;22.47;52.64;100785.59;7310978;19;129674;-40
2022/01/23 03:40:57;;;;;;;25.00;2.53;;;;;;;22.46;53.40;100785.72;7310117;19;158601;-40
2022/01/23 03:43:29;;;;;;;26.13;2.60;;;;;;;22.35;53.80;100790.91;7311015;19;130232;-41
2022/01/23 03:46:09;;;;;;;24.25;2.15;;;;;;;22.36;53.51;100790.00;7309396;19;129191;-40
2022/01/23 03:51:00;;;;;;;17.40;1.55;;;;;;;22.21;53.34;100791.13;7311390;19;129723;-40
2022/01/23 03:53:25;;;;;;;18.63;1.77;;;;;;;22.23;53.16;100804.97;7311101;19;130477;-41
2022/01/23 03:55:51;;;;;;;33.67;3.45;;;;;;;22.27;53.39;100806.38;7306848;19;141488;-41
2022/01/23 03:58:16;;;;;;;20.83;2.03;;;;;;;22.53;52.61;100807.91;7312164;19;128763;-40
2022/01/23 04:00:42;;;;;;;44.50;4.00;;;;;;;23.06;51.20;100807.25;7311038;19;129158;-41
2022/01/23 04:03:07;;;;;;;10.95;1.10;;;;;;;23.63;49.89;100805.31;7308180;19;159532;-43
2022/01/23 04:05:33;;;;;;;23.83;2.08;;;;;;;24.20;47.99;100810.22;7306850;19;153318;-40
2022/01/23 04:07:58;;;;;;;24.93;2.20;;;;;;;24.61;46.80;100806.78;7310803;19;129278;-41
2022/01/23 04:10:24;;;;;;;29.77;2.63;;;;;;;24.92;45.79;100804.09;7309162;19;158928;-40
2022/01/23 04:12:57;;;;;;;21.50;2.07;;;;;;;25.18;45.22;100805.28;7316658;19;129886;-40
2022/01/23 04:34:10;;;;;;;26.85;2.35;;;;;;;26.04;43.28;100789.66;7316634;19;129012;-40
2022/01/23 05:01:26;;;;;;;22.38;2.00;;;;;;;24.48;47.12;100799.09;7316872;19;128879;-40
2022/01/23 05:04:30;;;;;;;22.98;2.05;;;;;;;24.35;47.66;100803.72;7313180;19;132073;-41
2022/01/23 05:06:57;;;;;;;60.50;5.32;;;;;;;24.13;47.81;100817.78;7312492;19;130381;-39
2022/01/23 05:09:22;;;;;;;34.42;2.88;;;;;;;23.93;48.29;100815.94;7314417;19;129026;-41
2022/01/23 05:11:51;;;;;;;36.50;3.28;;;;;;;23.62;49.46;100803.63;7313726;19;153903;-40
2022/01/23 05:14:21;;;;;;;24.10;2.15;;;;;;;23.59;49.83;100824.88;7315553;19;130188;-40
2022/01/23 05:16:47;;;;;;;20.50;2.05;;;;;;;23.48;50.30;100835.41;7314093;19;131138;-40
2022/01/23 05:19:12;;;;;;;40.45;3.83;;;;;;;23.36;50.07;100839.00;7316197;19;129147;-40
2022/01/23 05:24:26;;;;;;;19.35;1.75;;;;;;;23.08;50.88;100845.53;7314640;19;128982;-41
2022/01/23 05:27:01;;;;;;;25.55;2.28;;;;;;;23.01;51.03;100843.50;7313980;19;130596;-40
2022/01/23 05:29:27;;;;;;;5.10;0.75;;;;;;;23.00;51.16;100850.53;7315368;19;129071;-40
2022/01/23 05:31:53;;;;;;;39.50;3.20;;;;;;;22.85;51.83;100863.97;7315195;19;129155;-40
2022/01/23 05:34:20;;;;;;;25.20;2.33;;;;;;;22.84;51.50;100864.94;7313919;19;129106;-40
2022/01/23 05:36:45;;;;;;;41.90;3.50;;;;;;;22.76;52.33;100855.03;7313857;19;130998;-39
2022/01/23 05:39:11;;;;;;;31.58;2.88;;;;;;;22.77;52.05;100853.25;7313561;19;147100;-40
2022/01/23 05:41:36;;;;;;;40.22;2.95;;;;;;;22.70;52.26;100858.13;7314899;19;128987;-41
2022/01/23 05:44:02;;;;;;;19.92;1.80;;;;;;;22.66;52.00;100868.97;7313600;19;157329;-40
2022/01/23 05:46:27;;;;;;;18.57;1.67;;;;;;;22.59;52.27;100859.88;7311409;19;130263;-39
2022/01/23 05:48:53;;;;;;;23.48;2.08;;;;;;;22.62;52.82;100864.88;7315956;19;129423;-40
2022/01/23 05:51:18;;;;;;;27.63;2.50;;;;;;;22.57;52.77;100867.03;7314365;19;144453;-39
2022/01/23 05:53:43;;;;;;;25.95;2.35;;;;;;;22.55;52.23;100874.16;7313324;19;159061;-40
2022/01/23 05:56:09;;;;;;;20.13;1.77;;;;;;;22.50;52.69;100876.25;7311881;19;137375;-40
2022/01/23 05:58:34;;;;;;;33.58;2.78;;;;;;;22.43;52.91;100875.88;7314099;19;154584;-40
2022/01/23 06:01:00;;;;;;;16.50;1.63;;;;;;;22.42;52.89;100876.00;7313644;19;154725;-40
2022/01/23 06:03:25;;;;;;;7.63;0.80;;;;;;;22.36;52.87;100873.84;7314746;19;129681;-41
2022/01/23 06:05:50;;;;;;;25.88;2.22;;;;;;;22.30;52.97;100872.50;7311422;19;129711;-41
2022/01/23 06:08:15;;;;;;;26.45;2.17;;;;;;;22.29;53.48;100877.84;7314422;19;129953;-40
2022/01/23 06:10:55;;;;;;;38.65;3.58;;;;;;;22.26;53.16;100885.94;7313229;19;135157;-40
2022/01/23 06:13:21;;;;;;;27.00;2.45;;;;;;;22.22;53.71;100887.94;7314476;19;130275;-39
2022/01/23 06:15:47;;;;;;;50.67;3.95;;;;;;;22.21;53.87;100891.53;7310411;19;129549;-41
2022/01/23 06:18:12;;;;;;;29.25;2.67;;;;;;;22.21;52.91;100873.19;7314873;19;129006;-41
2022/01/23 06:20:38;;;;;;;30.38;2.50;;;;;;;22.33;53.53;100901.09;7314070;19;131819;-41
2022/01/23 06:23:03;;;;;;;20.63;1.65;;;;;;;22.34;53.35;100891.44;7313876;19;157115;-39
2022/01/23 06:25:33;;;;;;;13.18;1.13;;;;;;;22.35;53.17;100890.50;7311026;19;130432;-41
2022/01/23 06:27:59;;;;;;;30.67;2.70;;;;;;;22.40;53.66;100891.84;7313865;19;129026;-41
2022/01/23 06:30:25;;;;;;;27.48;2.40;;;;;;;22.38;52.57;100882.44;7313853;19;129079;-41
2022/01/23 06:32:50;;;;;;;28.92;2.58;;;;;;;22.43;53.11;100883.75;7313702;19;136801;-40
2022/01/23 06:35:15;;;;;;;41.33;3.90;;;;;;;22.47;52.87;100881.72;7305695;19;158700;-39
2022/01/23 06:37:41;;;;;;;37.20;3.08;;;;;;;;;;7312243;19;141267;-40
2022/01/23 06:40:07;;;;;;;22.63;2.00;;;;;;;22.85;51.41;100898.06;7312557;19;129744;-40
2022/01/23 06:42:32;;;;;;;46.25;3.95;;;;;;;23.03;51.44;100896.66;7311748;19;129093;-40
2022/01/23 06:44:58;;;;;;;60.55;5.07;;;;;;;23.24;50.58;100885.38;7308603;19;158420;-40
2022/01/23 06:47:24;;;;;;;24.45;2.05;;;;;;;23.42;49.96;100885.75;7312021;19;128990;-41
2022/01/23 06:49:49;;;;;;;37.03;3.20;;;;;;;23.68;48.86;100884.53;7311834;19;129263;-40
2022/01/23 06:52:14;;;;;;;30.27;2.50;;;;;;;23.81;49.17;100890.47;7310093;19;158882;-40
2022/01/23 06:54:39;;;;;;;38.63;3.20;;;;;;;23.89;48.38;100888.06;7309499;19;159311;-40
2022/01/23 06:57:05;;;;;;;49.63;4.13;;;;;;;24.09;47.79;100895.22;7311723;19;129518;-40
2022/01/23 06:59:30;;;;;;;12.30;1.48;;;;;;;24.32;47.73;100896.81;7312696;19;129220;-41
2022/01/23 07:01:57;;;;;;;27.20;2.37;;;;;;;24.31;47.07;100900.38;7310514;19;158756;-40
2022/01/23 07:04:22;;;;;;;33.10;2.85;;;;;;;24.28;47.63;100905.03;7311493;19;130705;-41
2022/01/23 07:06:47;;;;;;;33.50;3.07;;;;;;;24.20;47.64;100913.56;7306073;19;154917;-40
2022/01/23 07:09:12;;;;;;;42.63;3.33;;;;;;;24.01;47.74;100895.00;7307529;19;139473;-39
2022/01/23 07:11:38;;;;;;;41.63;3.53;;;;;;;23.91;48.29;100912.44;7309499;19;158153;-39
2022/01/23 07:14:03;;;;;;;32.30;2.53;;;;;;;23.80;48.90;100917.69;7309184;19;130358;-40
2022/01/23 07:16:28;;;;;;;26.67;2.45;;;;;;;23.76;48.95;100916.28;7305797;19;155457;-38
2022/01/23 07:18:54;;;;;;;18.23;1.63;;;;;;;23.63;49.17;100918.19;7309619;19;153564;-40
2022/01/23 07:21:19;;;;;;;34.72;3.03;;;;;;;23.67;49.25;100914.38;7307524;19;158264;-41
2022/01/23 07:23:50;;;;;;;36.42;3.15;;;;;;;23.73;49.05;100919.16;7311707;19;129384;-40
2022/01/23 07:26:16;;;;;;;101.78;8.55;;;;;;;23.55;49.37;100920.56;7301194;19;130055;-40
2022/01/23 07:28:43;;;;;;;50.00;4.10;;;;;;;23.49;48.95;100930.72;7309618;19;129238;-41
2022/01/23 07:31:10;;;;;;;37.67;2.97;;;;;;;23.45;49.53;100935.41;7309368;19;130255;-39
2022/01/23 07:33:36;;;;;;;;;;;;;;;23.40;49.57;100934.06;7309458;19;130415;-42
2022/01/23 07:36:03;;;;;;;30.05;2.30;;;;;;;23.44;49.61;100938.97;7308015;19;129316;-39
2022/01/23 07:38:28;;;;;;;;;;;;;;;23.34;50.32;100953.75;7308720;19;129366;-39
2022/01/23 07:40:53;;;;;;;40.13;3.57;;;;;;;23.35;49.58;100947.56;7308177;19;130887;-40
2022/01/23 07:43:18;;;;;;;20.48;1.80;;;;;;;23.22;49.80;100955.47;7307202;19;158612;-39
2022/01/23 07:45:44;;;;;;;39.85;3.42;;;;;;;23.19;50.32;100955.72;7304023;19;155205;-39
2022/01/23 07:48:10;;;;;;;38.47;3.28;;;;;;;23.14;50.12;100957.00;7314314;19;129444;-39
2022/01/23 07:50:36;;;;;;;30.60;2.63;;;;;;;23.07;50.71;100950.59;7315970;19;129398;-41
2022/01/23 07:53:01;;;;;;;20.50;1.60;;;;;;;23.12;50.25;100959.75;7316577;19;129278;-39
2022/01/23 07:55:26;;;;;;;47.13;3.90;;;;;;;23.09;50.85;100959.16;7312251;19;129864;-40
2022/01/23 07:57:53;;;;;;;36.53;2.83;;;;;;;23.03;50.98;100947.34;7315158;19;129485;-40
2022/01/23 08:00:19;;;;;;;;;;;;;;;23.04;51.25;100958.66;7316794;19;130251;-39
2022/01/23 08:02:46;;;;;;;43.30;3.70;;;;;;;23.01;50.95;100965.00;7316242;19;131115;-40
2022/01/23 08:05:11;;;;;;;;;;;;;;;22.95;51.07;100962.00;7313522;19;130494;-39
2022/01/23 08:07:37;;;;;;;36.50;3.22;;;;;;;23.00;51.30;100965.09;7314586;19;130812;-39
2022/01/23 08:10:09;;;;;;;33.58;2.97;;;;;;;23.03;50.83;100975.38;7316359;19;129559;-41
2022/01/23 08:12:35;;;;;;;29.23;2.47;;;;;;;23.01;50.51;100982.50;7315872;19;130346;-41
2022/01/23 08:15:02;;;;;;;42.67;3.50;;;;;;;22.99;51.33;100976.56;7313630;19;130367;-40
2022/01/23 08:17:28;;;;;;;32.42;2.50;;;;;;;22.99;50.53;100984.44;7314351;19;129079;-39
2022/01/23 08:19:59;;;;;;;43.22;3.50;;;;;;;22.90;51.45;100985.09;7312393;19;154085;-40
2022/01/23 08:22:26;;;;;;;24.83;2.45;;;;;;;22.93;51.22;100977.00;7314115;19;130442;-40
2022/01/23 08:24:54;;;;;;;45.65;4.05;;;;;;;22.95;51.16;100982.97;7314151;19;129160;-39
2022/01/23 08:27:20;;;;;;;35.38;3.25;;;;;;;23.00;50.53;100981.69;7315592;19;130167;-40
2022/01/23 08:29:45;;;;;;;37.70;3.30;;;;;;;23.02;51.17;100986.81;7313643;19;132025;-40
2022/01/23 08:32:11;;;;;;;30.00;2.63;;;;;;;23.16;50.43;100986.59;7314651;19;129182;-40
2022/01/23 08:34:37;;;;;;;34.13;2.83;;;;;;;23.19;50.64;100981.13;7315489;19;129179;-39
2022/01/23 08:37:07;;;;;;;52.67;4.43;;;;;;;23.43;49.88;101000.28;7312982;19;129759;-41
2022/01/23 08:39:36;;;;;;;23.98;2.00;;;;;;;23.49;49.51;100989.31;7316183;19;130319;-40
2022/01/23 08:42:10;;;;;;;65.60;5.78;;;;;;;23.71;48.95;100989.34;7314554;19;131265;-40
2022/01/23 08:44:36;;;;;;;26.77;2.38;;;;;;;23.79;48.47;100997.44;7311877;19;129129;-38
2022/01/23 08:47:02;;;;;;;35.30;3.03;;;;;;;23.99;48.46;100990.66;7311916;19;130626;-39
2022/01/23 08:49:29;;;;;;;39.45;3.20;;;;;;;23.95;48.54;100992.66;7314519;19;131178;-40
2022/01/23 08:51:56;;;;;;;;;;;;;;;23.84;48.13;100990.03;7314662;19;129611;-40
2022/01/23 08:54:23;;;;;;;31.80;2.90;;;;;;;23.95;47.99;100992.66;7315015;19;129230;-39
2022/01/23 08:56:48;;;;;;;29.75;2.60;;;;;;;23.83;48.37;100990.97;7313161;19;129863;-39
2022/01/23 08:59:13;;;;;;;28.90;2.33;;;;;;;23.75;48.56;100997.81;7313557;19;130911;-38
2022/01/23 09:01:39;;;;;;;31.83;2.88;;;;;;;23.67;49.21;100990.50;7312758;19;158148;-38
2022/01/23 09:04:06;;;;;;;36.53;3.55;;;;;;;23.42;46.17;100976.78;7314018;19;129586;-39
2022/01/23 09:06:32;;;;;;;25.52;2.47;;;;;;;23.51;45.04;100992.66;7311491;19;128821;-38
2022/01/23 09:08:59;;;;;;;32.27;3.17;;;;;;;23.54;45.53;100997.66;7314315;19;129027;-38
2022/01/23 09:11:27;;;;;;;37.60;3.40;;;;;;;23.48;46.03;100998.16;7314769;19;130448;-38
2022/01/23 09:14:06;;;;;;;37.35;3.30;;;;;;;23.40;45.72;100995.28;7314281;19;129459;-39
2022/01/23 09:16:38;;;;;;;30.17;3.00;;;;;;;23.41;46.15;100991.69;7310806;19;129686;-39
2022/01/23 09:19:04;;;;;;;37.83;3.20;;;;;;;23.46;47.75;101000.06;7313476;19;132190;-38
2022/01/23 09:21:30;;;;;;;31.67;2.80;;;;;;;23.42;47.88;101003.84;7314917;19;130317;-39
2022/01/23 09:23:55;;;;;;;21.52;1.95;;;;;;;23.45;48.42;100998.41;7312837;19;129416;-40
2022/01/23 09:26:23;;;;;;;29.25;2.67;;;;;;;23.42;49.30;101009.09;7309836;19;130101;-40
2022/01/23 09:28:49;;;;;;;31.73;3.03;;;;;;;23.35;47.18;101004.44;7313742;19;130514;-38
2022/01/23 09:31:25;;;;;;;43.90;4.30;;;;;;;23.20;46.61;101009.84;7312203;19;130256;-39
2022/01/23 09:33:50;;;;;;;25.73;2.78;;;;;;;23.15;46.37;101016.44;7315548;19;129637;-39
2022/01/23 09:36:16;;;;;;;36.75;3.65;;;;;;;23.09;46.94;101003.75;7308763;19;129118;-40
2022/01/23 09:38:41;;;;;;;38.38;3.88;;;;;;;23.13;46.35;101008.66;7312553;19;150302;-39
2022/01/23 09:41:08;;;;;;;35.88;3.65;;;;;;;23.01;47.38;101008.72;7310825;19;151699;-39
2022/01/23 09:43:39;;;;;;;27.13;2.53;;;;;;;23.15;47.15;101022.47;7313698;19;130214;-40
2022/01/23 09:46:07;;;;;;;25.75;2.55;;;;;;;23.29;47.15;101021.47;7309629;19;129572;-40
2022/01/23 09:48:34;;;;;;;32.65;3.08;;;;;;;23.29;47.96;101021.47;7312123;19;129169;-41
2022/01/23 09:51:00;;;;;;;34.85;3.38;;;;;;;23.52;47.89;101025.00;7312085;19;129164;-39
2022/01/23 09:53:27;;;;;;;40.87;3.60;;;;;;;23.81;47.07;101029.69;7311532;19;129988;-39
2022/01/23 09:55:57;;;;;;;58.03;4.85;;;;;;;24.21;46.12;101030.84;7309800;19;130449;-40
2022/01/23 09:58:23;;;;;;;55.67;4.97;;;;;;;24.45;46.06;101031.53;7312607;19;130196;-41
2022/01/23 10:00:48;;;;;;;43.33;3.70;;;;;;;24.73;45.13;101037.22;7309100;19;157480;-40
2022/01/23 10:03:19;;;;;;;37.88;3.72;;;;;;;25.11;44.87;101032.25;7311975;19;129613;-40
2022/01/23 10:05:46;;;;;;;30.52;2.70;;;;;;;25.19;43.60;101030.66;7308280;19;129016;-40
2022/01/23 10:08:11;;;;;;;;;;;;;;;25.54;43.66;101038.25;7312410;19;129061;-41
2022/01/23 10:10:40;;;;;;;50.42;4.35;;;;;;;25.82;43.15;101029.66;7311527;19;130853;-40
2022/01/23 10:13:05;;;;;;;35.33;3.20;;;;;;;26.15;43.05;101025.94;7312145;19;129054;-40
2022/01/23 10:15:32;;;;;;;10.30;1.25;;;;;;;26.29;42.31;101023.78;7309622;19;153990;-40
2022/01/23 10:17:57;;;;;;;;;;;;;;;26.35;42.70;101017.94;7311611;19;130586;-40
2022/01/23 10:20:24;;;;;;;42.53;3.65;;;;;;;26.58;41.98;101013.25;7311706;19;130576;-40
2022/01/23 10:22:51;;;;;;;40.67;3.67;;;;;;;26.70;42.19;101017.47;7310816;19;129108;-41
2022/01/23 10:25:21;;;;;;;49.60;4.65;;;;;;;26.60;42.16;101021.84;7307507;19;129020;-38
2022/01/23 10:27:57;;;;;;;40.72;3.80;;;;;;;26.43;42.47;101020.72;7307022;19;129191;-40
2022/01/23 10:30:25;;;;;;;42.63;3.65;;;;;;;25.99;43.42;101009.75;7311994;19;129597;-39
2022/01/23 10:33:04;;;;;;;31.63;2.75;;;;;;;25.78;43.83;101017.75;7310300;19;129518;-39
2022/01/23 10:35:31;;;;;;;41.30;3.88;;;;;;;25.61;44.17;101032.38;7308584;19;130519;-40
2022/01/23 10:38:04;;;;;;;41.53;3.60;;;;;;;25.24;45.80;101025.00;7308479;19;130140;-40
2022/01/23 10:40:34;;;;;;;39.15;3.53;;;;;;;25.09;46.25;101018.44;7311201;19;131408;-39
2022/01/23 10:48:37;;;;;;;51.60;4.53;;;;;;;24.73;47.17;101003.03;7312111;19;129739;-39
2022/01/23 10:51:23;;;;;;;34.80;2.97;;;;;;;24.72;47.58;101030.31;7311042;19;130713;-40
2022/01/23 10:54:00;;;;;;;61.63;4.85;;;;;;;24.66;47.78;101022.88;7307296;19;129417;-40
2022/01/23 10:56:27;;;;;;;;;;;;;;;24.72;47.35;101025.03;7307225;19;129126;-40
2022/01/23 10:59:09;;;;;;;41.78;3.72;;;;;;;25.15;47.03;101020.53;7310030;19;130237;-40
2022/01/23 11:01:34;;;;;;;34.70;3.15;;;;;;;25.34;46.24;101018.00;7309806;19;130866;-41
2022/01/23 11:04:07;;;;;;;32.90;2.75;;;;;;;25.60;45.52;101019.31;7309925;19;129712;-40
2022/01/23 11:06:33;;;;;;;37.38;3.33;;;;;;;25.89;45.33;101020.28;7305159;19;129530;-40
2022/01/23 11:09:10;;;;;;;28.33;2.45;;;;;;;25.93;44.29;101008.50;7310187;19;129064;-39
2022/01/23 11:11:45;;;;;;;42.20;3.70;;;;;;;26.23;43.40;101011.09;7310108;19;129670;-39
2022/01/23 11:17:23;;;;;;;41.70;3.42;;;;;;;26.77;42.54;100995.66;7310479;19;128804;-41
2022/01/23 11:19:59;;;;;;;40.42;3.67;;;;;;;27.03;42.09;101008.28;7309738;19;129579;-39
2022/01/23 11:22:28;;;;;;;43.22;3.83;;;;;;;26.84;42.54;101009.13;7309262;19;129531;-40
2022/01/23 11:25:02;;;;;;;58.72;4.68;;;;;;;26.74;43.05;101003.84;7307153;19;129136;-41
2022/01/23 11:27:33;;;;;;;24.83;2.50;;;;;;;26.49;43.83;100993.81;7301430;19;129442;-38
2022/01/23 11:30:04;;;;;;;40.95;3.67;;;;;;;26.27;44.54;101004.59;7308597;19;129297;-39
2022/01/23 11:32:36;;;;;;;358.77;23.75;;;;;;;26.07;44.96;101002.88;7280439;19;130537;-37
2022/01/23 11:35:06;;;;;;;465.88;32.53;;;;;;;25.82;45.81;101005.16;5949093;19;10000452;-38
2022/01/23 11:37:33;;;;;;;27.63;2.53;;;;;;;25.47;45.97;101008.13;7294334;19;131079;-40
2022/01/23 11:40:06;;;;;;;29.95;3.00;;;;;;;25.21;44.73;101007.69;7305627;19;129599;-39
2022/01/23 11:50:42;;;;;;;56.58;5.15;;;;;;;25.05;43.59;101006.47;7305360;19;129455;-40
2022/01/23 11:53:57;;;;;;;51.00;4.60;;;;;;;25.93;43.01;101003.25;7307120;19;129257;-37
2022/01/23 11:56:25;;;;;;;37.63;3.20;;;;;;;26.02;42.74;100997.19;7305296;19;129113;-40
2022/01/23 11:59:09;;;;;;;35.50;3.15;;;;;;;26.42;41.65;101000.59;7305827;19;130854;-42
2022/01/23 12:01:35;;;;;;;38.80;3.42;;;;;;;26.65;40.55;100999.41;7307521;19;129111;-40
2022/01/23 12:04:11;;;;;;;20.40;1.98;;;;;;;26.75;40.30;101000.25;7308135;19;129659;-40
2022/01/23 12:06:47;;;;;;;21.00;2.10;;;;;;;27.03;40.05;100998.56;7306903;19;131355;-41
2022/01/23 12:09:19;;;;;;;31.23;3.00;;;;;;;26.90;40.28;100992.72;7307932;19;129682;-40
2022/01/23 12:12:05;;;;;;;37.35;3.90;;;;;;;26.68;40.71;100993.84;7308033;19;129127;-41
2022/01/23 12:17:11;;;;;;;34.38;3.13;;;;;;;26.12;42.08;100968.22;7305827;19;130687;-40
2022/01/23 12:19:51;;;;;;;34.80;3.20;;;;;;;25.95;43.77;100977.56;7308871;19;130393;-39
2022/01/23 12:22:34;;;;;;;45.92;4.38;;;;;;;25.62;43.33;100981.34;7307218;19;130159;-40
2022/01/23 12:25:13;;;;;;;24.10;2.72;;;;;;;25.32;41.14;100983.91;7306479;19;128952;-37
2022/01/23 12:27:39;;;;;;;30.67;2.78;;;;;;;25.05;42.29;100990.69;7305977;19;129845;-40
2022/01/23 12:30:31;;;;;;;29.50;2.70;;;;;;;24.93;42.54;100989.06;7306155;19;129847;-39
2022/01/23 12:33:17;;;;;;;35.38;3.50;;;;;;;24.75;43.00;100983.53;7308211;19;129529;-39
2022/01/23 12:36:07;;;;;;;36.58;3.55;;;;;;;24.85;43.22;100980.97;7311384;19;129429;-39
2022/01/23 12:38:36;;;;;;;32.88;3.15;;;;;;;25.05;42.89;100985.41;7315272;19;130733;-39
2022/01/23 12:41:32;;;;;;;41.47;3.58;;;;;;;25.22;42.25;100976.94;7313867;19;132461;-40
2022/01/23 12:44:07;;;;;;;27.50;2.90;;;;;;;25.67;41.54;100978.31;7312391;19;129830;-40
2022/01/23 12:46:49;;;;;;;24.52;2.17;;;;;;;26.01;41.92;100971.81;7312115;19;129045;-41
2022/01/23 12:49:16;;;;;;;64.82;5.82;;;;;;;26.30;41.49;100967.41;7312815;19;130092;-39
2022/01/23 12:51:42;;;;;;;;;;;;;;;26.42;40.80;100968.13;7314110;19;130320;-40
2022/01/23 12:54:15;;;;;;;25.77;2.33;;;;;;;26.81;40.24;100964.53;7312467;19;130012;-40
2022/01/23 12:56:45;;;;;;;32.30;2.95;;;;;;;26.82;40.28;100964.38;7314329;19;129624;-40
2022/01/23 12:59:28;;;;;;;28.27;2.58;;;;;;;27.10;40.00;100972.41;7314330;19;129800;-40
2022/01/23 13:02:06;;;;;;;33.15;3.13;;;;;;;26.93;40.05;100972.19;7315008;19;129653;-41
2022/01/23 13:04:36;;;;;;;25.70;2.15;;;;;;;26.76;40.54;100964.13;7314544;19;130399;-41
2022/01/23 13:07:36;;;;;;;40.47;3.75;;;;;;;26.53;41.36;100968.81;7312253;19;128866;-40
2022/01/23 13:10:23;;;;;;;45.63;4.03;;;;;;;26.06;42.10;100964.34;7314697;19;130270;-41
2022/01/23 13:13:23;;;;;;;21.63;2.13;;;;;;;25.93;43.09;100974.25;7311749;19;131235;-40
2022/01/23 13:18:36;;;;;;;66.43;5.23;;;;;;;25.92;43.64;100972.56;7309796;19;130623;-37
2022/01/23 13:27:10;;;;;;;51.65;4.15;;;;;;;25.43;44.62;100975.16;7308084;19;129846;-41
2022/01/23 13:32:14;;;;;;;;;;;;;;;25.20;45.75;100965.72;7311589;19;129824;-40
2022/01/23 13:34:45;;;;;;;39.13;3.38;;;;;;;25.03;46.46;100977.66;7311438;19;130563;-40
2022/01/23 13:37:13;;;;;;;52.65;4.35;;;;;;;25.02;46.65;100980.41;7311154;19;129403;-40
2022/01/23 13:39:47;;;;;;;35.55;3.33;;;;;;;25.03;46.17;100995.22;7313731;19;128961;-40
2022/01/23 13:42:48;;;;;;;51.00;4.13;;;;;;;24.92;44.89;100963.72;7311430;19;130317;-39
2022/01/23 13:59:18;;;;;;;35.05;3.13;;;;;;;26.08;39.76;100978.19;7314600;19;129516;-40
2022/01/23 14:01:54;;;;;;;34.65;3.30;;;;;;;26.12;39.54;100979.59;7313211;19;129054;-41
2022/01/23 14:04:22;;;;;;;55.63;5.55;;;;;;;26.39;38.35;100977.16;7312451;19;130879;-39
2022/01/23 14:06:48;;;;;;;67.22;6.05;;;;;;;26.55;38.15;100977.44;7309807;19;129685;-39
2022/01/23 14:09:15;;;;;;;28.23;2.87;;;;;;;26.44;38.21;100985.50;7312654;19;129199;-39
2022/01/23 14:11:42;;;;;;;50.03;4.68;;;;;;;26.45;38.64;100987.16;7311702;19;128997;-40
2022/01/23 14:14:23;;;;;;;46.95;4.43;;;;;;;26.09;39.21;100982.50;7311628;19;130885;-41
2022/01/23 14:16:52;;;;;;;36.28;3.67;;;;;;;26.01;39.27;100987.63;7311990;19;130868;-39
2022/01/23 14:19:26;;;;;;;32.85;3.15;;;;;;;25.78;39.92;100991.41;7312620;19;129461;-41
2022/01/23 14:21:59;;;;;;;31.33;3.53;;;;;;;25.59;40.90;100993.94;7312999;19;129364;-41
2022/01/23 14:24:33;;;;;;;46.67;4.57;;;;;;;25.32;41.40;100996.28;7310834;19;130223;-41
2022/01/23 14:27:06;;;;;;;37.80;3.90;;;;;;;25.11;41.83;100995.41;7309024;19;130359;-39
2022/01/23 14:29:34;;;;;;;31.45;3.08;;;;;;;25.05;41.95;100995.94;7312838;19;129146;-40